Time;durP1;ratioP1;P1;durP2;ratioP2;P2;SDS_P1;SDS_P2;PMS_P1;PMS_P2;Temp;Humidity;BMP_temperature;BMP_pressure;BME280_temperature;BME280_humidity;BME280_pressure;Samples;Min_cycle;Max_cycle;Signal;HPM_P1;HPM_P2
2022/05/23 00:00:55;;;;;;;7.10;6.37;;;16.20;99.90;;;;;;5064205;28;20189;-39
2022/05/23 00:03:21;;;;;;;7.40;6.53;;;16.20;99.90;;;;;;5082025;28;20789;-39
2022/05/23 00:05:47;;;;;;;9.07;6.57;;;16.20;99.90;;;;;;5068700;28;20439;-39
2022/05/23 00:08:13;;;;;;;8.27;7.33;;;16.20;99.90;;;;;;5067943;28;20475;-41
2022/05/23 00:10:39;;;;;;;10.00;6.60;;;16.20;99.90;;;;;;5068751;28;20782;-39
2022/05/23 00:13:06;;;;;;;8.63;6.40;;;16.10;99.90;;;;;;5068669;28;20476;-42
2022/05/23 00:15:32;;;;;;;8.47;6.40;;;16.20;99.90;;;;;;5067734;28;20196;-40
2022/05/23 00:17:58;;;;;;;9.23;6.63;;;16.20;99.90;;;;;;5057046;28;20798;-41
2022/05/23 00:20:26;;;;;;;7.13;6.43;;;16.20;99.90;;;;;;5068404;28;20466;-39
2022/05/23 00:22:52;;;;;;;8.93;7.07;;;16.20;99.90;;;;;;5070118;28;20746;-43
2022/05/23 00:25:18;;;;;;;7.97;5.90;;;16.20;99.90;;;;;;5072607;28;20469;-39
2022/05/23 00:27:45;;;;;;;9.13;6.87;;;16.20;99.90;;;;;;5071656;28;20200;-39
2022/05/23 00:30:15;;;;;;;6.97;6.30;;;16.20;99.90;;;;;;5072667;28;20192;-39
2022/05/23 00:35:25;;;;;;;7.70;6.50;;;16.20;99.90;;;;;;5072113;28;20431;-39
2022/05/23 00:37:53;;;;;;;6.47;5.87;;;16.10;99.90;;;;;;5071590;28;20431;-40
2022/05/23 00:40:40;;;;;;;7.40;6.70;;;16.20;99.90;;;;;;5072303;28;20546;-42
2022/05/23 00:43:13;;;;;;;8.30;6.73;;;16.20;99.90;;;;;;5058765;28;20473;-39
2022/05/23 00:45:39;;;;;;;7.43;6.63;;;16.20;99.90;;;;;;5071371;28;20510;-39
2022/05/23 00:48:05;;;;;;;7.67;6.23;;;16.20;99.90;;;;;;5064865;28;20427;-39
2022/05/23 00:50:34;;;;;;;8.70;6.73;;;16.20;99.90;;;;;;5071990;28;20857;-42
2022/05/23 00:53:01;;;;;;;7.10;6.20;;;16.20;99.90;;;;;;5071757;28;20503;-42
2022/05/23 00:55:35;;;;;;;8.30;6.90;;;16.20;99.90;;;;;;5071651;28;20458;-39
2022/05/23 00:58:06;;;;;;;6.90;6.17;;;16.20;99.90;;;;;;5070854;28;20430;-41
2022/05/23 01:00:32;;;;;;;8.30;7.13;;;16.20;99.90;;;;;;5071838;28;20439;-41
2022/05/23 01:03:04;;;;;;;7.30;6.33;;;16.20;99.90;;;;;;5059908;28;20493;-40
2022/05/23 01:05:31;;;;;;;7.73;6.53;;;16.20;99.90;;;;;;5071689;28;20751;-40
2022/05/23 01:07:58;;;;;;;7.23;6.33;;;16.20;99.90;;;;;;5070985;28;20522;-39
2022/05/23 01:10:24;;;;;;;6.73;6.10;;;16.20;99.90;;;;;;5071604;28;20755;-39
2022/05/23 01:12:49;;;;;;;7.47;6.70;;;16.30;99.90;;;;;;5071353;28;20484;-38
2022/05/23 01:15:22;;;;;;;9.30;5.97;;;16.30;99.90;;;;;;5071625;28;20480;-39
2022/05/23 01:17:48;;;;;;;8.23;6.03;;;16.30;99.90;;;;;;5059208;28;20228;-39
2022/05/23 01:20:14;;;;;;;7.13;6.43;;;16.30;99.90;;;;;;5071258;28;20839;-39
2022/05/23 01:23:08;;;;;;;7.03;5.63;;;16.30;99.90;;;;;;5071356;28;20219;-39
2022/05/23 01:25:45;;;;;;;6.57;5.50;;;16.20;99.90;;;;;;5071315;28;20922;-39
2022/05/23 01:28:13;;;;;;;7.80;6.10;;;16.20;99.90;;;;;;5070533;28;20476;-39
2022/05/23 01:30:40;;;;;;;6.80;5.87;;;16.10;99.90;;;;;;5071383;28;20930;-39
2022/05/23 01:33:07;;;;;;;8.27;7.17;;;16.00;99.90;;;;;;5061900;28;20423;-39
2022/05/23 01:35:33;;;;;;;10.00;6.37;;;16.00;99.90;;;;;;5070604;28;20430;-39
2022/05/23 01:37:59;;;;;;;7.20;6.47;;;16.00;99.90;;;;;;5070508;28;20443;-39
2022/05/23 01:40:25;;;;;;;6.67;6.00;;;16.00;99.90;;;;;;5070948;28;20423;-43
2022/05/23 01:42:51;;;;;;;9.10;5.90;;;16.10;99.90;;;;;;5070791;28;20237;-41
2022/05/23 01:45:21;;;;;;;6.70;5.97;;;16.10;99.90;;;;;;5071054;28;20430;-39
2022/05/23 01:47:47;;;;;;;7.20;6.17;;;16.10;99.90;;;;;;5059744;28;20428;-39
2022/05/23 01:50:13;;;;;;;7.17;6.47;;;16.10;99.90;;;;;;5070512;28;20447;-39
2022/05/23 01:52:39;;;;;;;7.50;5.70;;;16.10;99.90;;;;;;5070719;28;20193;-40
2022/05/23 01:55:05;;;;;;;6.60;5.90;;;16.10;99.90;;;;;;5070568;28;20504;-40
2022/05/23 01:57:32;;;;;;;6.33;5.73;;;16.20;99.90;;;;;;5076006;28;20925;-39
2022/05/23 02:02:47;;;;;;;5.87;5.27;;;16.30;99.90;;;;;;5064463;28;20482;-39
2022/05/23 02:05:14;;;;;;;16.87;6.13;;;16.30;99.90;;;;;;5070342;28;20435;-39
2022/05/23 02:07:39;;;;;;;8.10;5.70;;;16.30;99.90;;;;;;5069884;28;20987;-39
2022/05/23 02:10:05;;;;;;;6.40;5.83;;;16.30;99.90;;;;;;5070324;28;20427;-39
2022/05/23 02:12:31;;;;;;;8.70;5.50;;;16.20;99.90;;;;;;5070461;28;20201;-39
2022/05/23 02:14:57;;;;;;;9.10;6.27;;;16.20;99.90;;;;;;5070442;28;20500;-40
2022/05/23 02:17:23;;;;;;;5.77;5.27;;;16.20;99.90;;;;;;5059131;28;20189;-41
2022/05/23 02:19:49;;;;;;;7.73;6.13;;;16.30;99.90;;;;;;5066039;28;20189;-38
2022/05/23 02:22:15;;;;;;;7.63;5.70;;;16.40;99.90;;;;;;5069975;28;20516;-39
2022/05/23 02:24:40;;;;;;;7.13;5.63;;;16.40;99.90;;;;;;5070194;28;20913;-38
2022/05/23 02:27:07;;;;;;;7.97;6.27;;;16.30;99.90;;;;;;5069415;28;20656;-39
2022/05/23 02:29:33;;;;;;;6.67;6.00;;;16.30;99.90;;;;;;5069976;28;20219;-40
2022/05/23 02:31:59;;;;;;;6.90;6.10;;;16.20;99.90;;;;;;5063639;28;20436;-41
2022/05/23 02:34:24;;;;;;;9.10;6.37;;;16.20;99.90;;;;;;5067187;28;20527;-39
2022/05/23 02:36:50;;;;;;;12.00;6.47;;;16.20;99.90;;;;;;5069157;28;20517;-39
2022/05/23 02:39:16;;;;;;;6.43;5.80;;;16.30;99.90;;;;;;5069855;28;20200;-40
2022/05/23 02:41:41;;;;;;;7.40;5.53;;;16.30;99.90;;;;;;5069682;28;20222;-39
2022/05/23 02:44:07;;;;;;;6.67;6.07;;;16.20;99.90;;;;;;5069842;28;20496;-41
2022/05/23 02:46:33;;;;;;;8.23;5.60;;;16.30;99.90;;;;;;5064931;28;20197;-39
2022/05/23 02:48:59;;;;;;;5.77;5.17;;;16.40;99.90;;;;;;5058142;28;20563;-39
2022/05/23 02:51:25;;;;;;;5.70;5.30;;;16.40;99.90;;;;;;5069744;28;20435;-40
2022/05/23 02:53:51;;;;;;;6.87;4.90;;;16.40;99.90;;;;;;5069502;28;20197;-39
2022/05/23 02:56:17;;;;;;;7.13;5.50;;;16.50;99.90;;;;;;5069472;28;20659;-39
2022/05/23 02:58:43;;;;;;;7.13;5.27;;;16.50;99.90;;;;;;5068611;28;20210;-39
2022/05/23 03:01:10;;;;;;;8.07;5.27;;;16.50;99.90;;;;;;5069304;28;20427;-39
2022/05/23 03:03:37;;;;;;;6.00;4.77;;;16.50;99.90;;;;;;5057964;28;20471;-40
2022/05/23 03:06:03;;;;;;;4.57;4.17;;;16.50;99.90;;;;;;5069491;28;20420;-39
2022/05/23 03:08:29;;;;;;;5.57;4.93;;;16.50;99.90;;;;;;5068623;28;20445;-39
2022/05/23 03:10:58;;;;;;;5.67;5.17;;;16.60;99.90;;;;;;5069564;28;20426;-41
2022/05/23 03:13:24;;;;;;;5.70;5.10;;;16.50;99.90;;;;;;5069059;28;20207;-38
2022/05/23 03:15:50;;;;;;;5.10;4.60;;;16.50;99.90;;;;;;5069266;28;20438;-40
2022/05/23 03:18:16;;;;;;;5.57;5.13;;;16.40;99.90;;;;;;5061386;28;20439;-39
2022/05/23 03:20:42;;;;;;;5.57;5.13;;;16.30;99.90;;;;;;5069255;28;20185;-39
2022/05/23 03:28:39;;;;;;;6.90;4.50;;;16.30;99.90;;;;;;5056632;28;20807;-39
2022/05/23 03:31:05;;;;;;;5.73;4.90;;;16.20;99.90;;;;;;5069046;28;20434;-41
2022/05/23 03:33:31;;;;;;;5.13;4.60;;;16.20;99.90;;;;;;5057789;28;20200;-39
2022/05/23 03:35:57;;;;;;;5.63;5.13;;;16.20;99.90;;;;;;5069002;28;20189;-40
2022/05/23 03:38:23;;;;;;;5.90;5.20;;;16.20;99.90;;;;;;5068198;28;20953;-41
2022/05/23 03:40:49;;;;;;;4.90;4.40;;;16.20;99.90;;;;;;5068901;28;20273;-42
2022/05/23 03:43:15;;;;;;;7.53;5.23;;;16.20;99.90;;;;;;5069215;28;20224;-39
2022/05/23 03:45:41;;;;;;;5.83;4.10;;;16.20;99.90;;;;;;5068755;28;20502;-39
2022/05/23 03:48:08;;;;;;;4.60;4.07;;;16.30;99.90;;;;;;5056039;28;20505;-39
2022/05/23 03:50:35;;;;;;;4.07;3.70;;;16.40;99.90;;;;;;5068635;28;20438;-42
2022/05/23 03:53:02;;;;;;;4.23;3.90;;;16.40;99.90;;;;;;5067333;28;20894;-40
2022/05/23 03:55:29;;;;;;;4.20;3.77;;;16.50;99.90;;;;;;5068580;28;20855;-39
2022/05/23 03:57:55;;;;;;;4.17;3.20;;;16.50;99.90;;;;;;5085713;28;20419;-39
2022/05/23 04:00:21;;;;;;;4.87;4.23;;;16.50;99.90;;;;;;5072746;28;20431;-39
2022/05/23 04:02:46;;;;;;;4.47;3.70;;;16.50;99.90;;;;;;5067474;28;20471;-41
2022/05/23 04:05:14;;;;;;;4.83;4.27;;;16.30;99.90;;;;;;5069268;28;20512;-40
2022/05/23 04:07:41;;;;;;;4.40;4.00;;;16.30;99.90;;;;;;5072033;28;20189;-42
2022/05/23 04:10:17;;;;;;;6.37;4.40;;;16.40;99.90;;;;;;5071535;28;20426;-42
2022/05/23 04:12:44;;;;;;;5.40;4.40;;;16.30;99.90;;;;;;5072880;28;20418;-40
2022/05/23 04:15:11;;;;;;;5.73;4.10;;;16.30;99.90;;;;;;5072602;28;20842;-43
2022/05/23 04:17:37;;;;;;;4.60;4.20;;;16.40;99.90;;;;;;5066864;28;20446;-39
2022/05/23 04:20:03;;;;;;;6.70;4.23;;;16.40;99.90;;;;;;5068944;28;20448;-39
2022/05/23 04:22:29;;;;;;;4.40;4.00;;;16.30;99.90;;;;;;5072198;28;20463;-40
2022/05/23 04:24:55;;;;;;;7.10;4.40;;;16.30;99.90;;;;;;5072549;28;20445;-40
2022/05/23 04:27:20;;;;;;;7.97;3.90;;;16.50;99.90;;;;;;5071754;28;20189;-39
2022/05/23 04:29:46;;;;;;;5.87;4.07;;;16.50;99.90;;;;;;5072348;28;20197;-39
2022/05/23 04:35:15;;;;;;;4.47;4.07;;;16.50;99.90;;;;;;5071352;28;20496;-40
2022/05/23 04:37:46;;;;;;;6.30;4.20;;;16.60;99.90;;;;;;5067777;28;20438;-38
2022/05/23 04:40:19;;;;;;;5.67;4.10;;;16.60;99.90;;;;;;5072280;28;20438;-39
2022/05/23 04:42:45;;;;;;;4.03;3.63;;;16.60;99.90;;;;;;5071844;28;20466;-39
2022/05/23 04:45:11;;;;;;;4.37;3.60;;;16.70;99.90;;;;;;5065990;28;20450;-39
2022/05/23 04:50:22;;;;;;;4.20;3.70;;;16.90;99.90;;;;;;5066827;28;20423;-39
2022/05/23 04:52:47;;;;;;;4.73;3.63;;;17.00;99.90;;;;;;5070343;28;20422;-39
2022/05/23 04:55:14;;;;;;;4.33;4.00;;;17.10;99.90;;;;;;5071826;28;20185;-39
2022/05/23 04:57:40;;;;;;;3.53;3.23;;;17.10;99.90;;;;;;5070921;28;20204;-40
2022/05/23 05:00:09;;;;;;;5.67;4.50;;;17.10;99.90;;;;;;5070427;28;20463;-40
2022/05/23 05:02:36;;;;;;;3.77;2.93;;;17.10;99.90;;;;;;5068566;28;20220;-41
2022/05/23 05:05:02;;;;;;;3.90;3.57;;;17.10;99.90;;;;;;5060143;28;20418;-40
2022/05/23 05:07:28;;;;;;;5.57;4.13;;;17.10;99.90;;;;;;5070815;28;20781;-39
2022/05/23 05:09:53;;;;;;;5.03;3.30;;;17.20;99.90;;;;;;5069915;28;20542;-41
2022/05/23 05:12:19;;;;;;;5.80;3.20;;;17.20;99.90;;;;;;5071140;28;20555;-40
2022/05/23 05:14:45;;;;;;;4.43;3.50;;;17.20;99.90;;;;;;5070975;28;20201;-39
2022/05/23 05:17:10;;;;;;;5.63;4.00;;;17.30;99.90;;;;;;5071117;28;20193;-40
2022/05/23 05:19:36;;;;;;;3.73;3.37;;;17.30;99.90;;;;;;5057953;28;20201;-39
2022/05/23 05:22:03;;;;;;;8.43;5.27;;;17.30;99.90;;;;;;5071465;28;20695;-39
2022/05/23 05:24:32;;;;;;;4.67;4.10;;;17.30;99.90;;;;;;5071099;28;20197;-39
2022/05/23 05:26:58;;;;;;;9.10;6.47;;;17.30;99.90;;;;;;5070265;28;20469;-39
2022/05/23 05:29:24;;;;;;;5.63;5.13;;;17.30;99.90;;;;;;5071051;28;20419;-41
2022/05/23 05:32:08;;;;;;;5.90;5.27;;;17.30;99.90;;;;;;5070620;28;20441;-43
2022/05/23 05:34:44;;;;;;;10.63;6.67;;;17.40;99.90;;;;;;5061196;28;20189;-39
2022/05/23 05:37:19;;;;;;;5.07;4.57;;;17.40;99.90;;;;;;5066736;28;20426;-39
2022/05/23 05:39:46;;;;;;;7.20;5.77;;;17.40;99.90;;;;;;5057634;28;20434;-41
2022/05/23 05:42:26;;;;;;;7.80;5.30;;;17.40;99.90;;;;;;5069586;28;20560;-41
2022/05/23 05:45:12;;;;;;;7.20;6.00;;;17.40;99.90;;;;;;5069683;28;20499;-39
2022/05/23 05:47:42;;;;;;;7.97;5.63;;;17.40;99.90;;;;;;5068284;28;20452;-40
2022/05/23 05:50:21;;;;;;;6.43;5.10;;;17.40;99.90;;;;;;5062886;28;20431;-39
2022/05/23 05:52:48;;;;;;;8.37;5.33;;;17.40;99.90;;;;;;5062206;28;20976;-39
2022/05/23 05:55:14;;;;;;;5.17;4.67;;;17.50;99.90;;;;;;5067764;28;20430;-39
2022/05/23 05:57:40;;;;;;;6.33;5.53;;;17.50;99.90;;;;;;5070103;28;20420;-40
2022/05/23 06:00:07;;;;;;;5.93;4.60;;;17.60;99.90;;;;;;5069162;28;20444;-40
2022/05/23 06:02:33;;;;;;;6.77;4.57;;;17.70;99.90;;;;;;5078238;28;20526;-40
2022/05/23 06:04:59;;;;;;;7.80;4.13;;;17.90;99.90;;;;;;5062632;28;20447;-41
2022/05/23 06:12:58;;;;;;;4.43;4.03;;;18.20;99.90;;;;;;5062855;28;20801;-39
2022/05/23 06:15:25;;;;;;;4.83;3.70;;;18.20;99.90;;;;;;5068576;28;20420;-41
2022/05/23 06:17:52;;;;;;;4.10;3.70;;;18.30;99.90;;;;;;5068927;28;20531;-41
2022/05/23 06:20:19;;;;;;;5.93;4.00;;;18.40;99.90;;;;;;5058812;28;20443;-40
2022/05/23 06:22:44;;;;;;;4.30;3.90;;;18.50;99.90;;;;;;5070115;28;20462;-39
2022/05/23 06:25:11;;;;;;;5.83;3.80;;;18.40;99.90;;;;;;5070017;28;20431;-39
2022/05/23 06:27:37;;;;;;;4.07;3.77;;;18.40;99.90;;;;;;5069377;28;20238;-41
2022/05/23 06:30:06;;;;;;;4.50;3.70;;;18.40;99.90;;;;;;5070249;28;20421;-41
2022/05/23 06:32:32;;;;;;;3.97;3.50;;;18.40;99.90;;;;;;5070171;28;20423;-39
2022/05/23 06:34:58;;;;;;;4.40;3.40;;;18.40;99.90;;;;;;5061312;28;20446;-40
2022/05/23 06:37:25;;;;;;;5.43;3.57;;;18.40;99.90;;;;;;5067472;28;20412;-42
2022/05/23 06:39:50;;;;;;;4.07;3.77;;;18.40;99.90;;;;;;5069690;28;20450;-39
2022/05/23 06:42:16;;;;;;;5.27;3.97;;;18.40;99.90;;;;;;5069677;28;20462;-39
2022/05/23 06:44:42;;;;;;;5.57;3.30;;;18.50;99.90;;;;;;5069916;28;20272;-39
2022/05/23 06:47:08;;;;;;;4.00;3.30;;;18.50;99.90;;;;;;5068497;28;20640;-39
2022/05/23 06:49:34;;;;;;;4.50;4.10;;;18.50;99.90;;;;;;5061100;28;20443;-39
2022/05/23 06:52:00;;;;;;;5.40;3.40;;;18.60;99.90;;;;;;5069442;28;20463;-39
2022/05/23 06:54:25;;;;;;;4.70;3.77;;;18.60;99.90;;;;;;5067966;28;20656;-41
2022/05/23 06:56:51;;;;;;;4.60;3.13;;;18.70;99.90;;;;;;5068683;28;20444;-40
2022/05/23 06:59:18;;;;;;;4.67;3.40;;;18.70;99.90;;;;;;5069779;28;20246;-39
2022/05/23 07:01:45;;;;;;;3.90;3.43;;;18.80;99.90;;;;;;5069550;28;20183;-44
2022/05/23 07:04:12;;;;;;;6.63;3.30;;;18.90;99.90;;;;;;5060266;28;20546;-39
2022/05/23 07:12:19;;;;;;;6.33;4.07;;;18.90;99.90;;;;;;5069396;28;20202;-39
2022/05/23 07:12:27;;;;;;;4.10;3.70;;;18.90;99.90;;;;;;5069244;28;20473;-39
2022/05/23 07:14:56;;;;;;;6.47;3.47;;;19.00;99.90;;;;;;5069293;28;20434;-39
2022/05/23 07:17:22;;;;;;;7.63;3.90;;;19.00;99.90;;;;;;5068515;28;20424;-42
2022/05/23 07:19:48;;;;;;;3.73;3.43;;;19.10;99.90;;;;;;5057537;28;20447;-39
2022/05/23 07:22:14;;;;;;;8.30;3.60;;;19.20;99.90;;;;;;5069010;28;20459;-42
2022/05/23 07:24:41;;;;;;;3.93;3.53;;;19.30;99.90;;;;;;5067759;28;20480;-41
2022/05/23 07:27:07;;;;;;;4.03;3.63;;;19.30;99.90;;;;;;5050729;28;20431;-43
2022/05/23 07:29:33;;;;;;;3.77;3.37;;;19.30;99.90;;;;;;5068943;28;20425;-40
2022/05/23 07:31:58;;;;;;;4.73;3.30;;;19.30;99.90;;;;;;5068584;28;20434;-39
2022/05/23 07:34:24;;;;;;;4.50;3.23;;;19.40;99.90;;;;;;5059439;28;20202;-42
2022/05/23 07:36:50;;;;;;;3.83;3.20;;;19.40;99.90;;;;;;5061845;28;20189;-41
2022/05/23 07:39:16;;;;;;;3.47;3.10;;;19.50;99.90;;;;;;5068887;28;20778;-39
2022/05/23 07:41:43;;;;;;;3.80;3.50;;;19.50;99.90;;;;;;5069117;28;20559;-39
2022/05/23 07:44:10;;;;;;;4.60;3.20;;;19.60;99.90;;;;;;5067549;28;20185;-39
2022/05/23 07:46:37;;;;;;;4.37;3.37;;;19.60;99.90;;;;;;5068374;28;20940;-39
2022/05/23 07:49:04;;;;;;;3.40;3.10;;;19.60;99.90;;;;;;5059780;28;20539;-39
2022/05/23 07:51:32;;;;;;;4.13;3.50;;;19.70;99.90;;;;;;5059899;28;20529;-41
2022/05/23 08:02:13;;;;;;;4.63;3.70;;;19.90;99.90;;;;;;5068871;28;20463;-39
2022/05/23 08:04:39;;;;;;;4.70;3.53;;;20.00;99.90;;;;;;5058112;28;20443;-39
2022/05/23 08:07:09;;;;;;;4.00;3.60;;;20.00;99.90;;;;;;5066179;28;20439;-40
2022/05/23 08:09:36;;;;;;;5.27;3.57;;;20.00;99.90;;;;;;5068316;28;20205;-39
2022/05/23 08:12:04;;;;;;;3.53;3.20;;;20.10;99.90;;;;;;5068686;28;20427;-39
2022/05/23 08:14:30;;;;;;;3.30;3.00;;;20.10;99.90;;;;;;5068811;28;20442;-40
2022/05/23 08:16:57;;;;;;;5.60;3.57;;;20.20;99.90;;;;;;5067988;28;20427;-42
2022/05/23 08:19:23;;;;;;;4.10;3.67;;;20.30;99.90;;;;;;5061580;28;20475;-39
2022/05/23 08:21:54;;;;;;;3.40;3.10;;;20.40;99.90;;;;;;5062610;28;20856;-39
2022/05/23 08:24:21;;;;;;;3.70;3.03;;;20.50;99.90;;;;;;5068730;28;20300;-39
2022/05/23 08:26:47;;;;;;;4.20;3.80;;;20.50;99.90;;;;;;5067818;28;20434;-43
2022/05/23 08:29:13;;;;;;;3.20;2.90;;;20.60;99.90;;;;;;5068574;28;20428;-39
2022/05/23 08:31:39;;;;;;;3.67;3.30;;;20.60;99.90;;;;;;5068401;28;20205;-39
2022/05/23 08:34:06;;;;;;;4.33;3.13;;;20.60;99.90;;;;;;5063926;28;20193;-40
2022/05/23 08:36:32;;;;;;;5.60;3.27;;;20.60;99.90;;;;;;5062628;28;20419;-38
2022/05/23 08:38:59;;;;;;;3.60;3.30;;;20.60;99.90;;;;;;5068267;28;20455;-39
2022/05/23 08:41:37;;;;;;;7.33;3.63;;;20.60;99.90;;;;;;5067068;28;20423;-39
2022/05/23 08:44:23;;;;;;;4.20;3.03;;;20.70;99.90;;;;;;5070246;28;20427;-39
2022/05/23 08:47:29;;;;;;;3.60;2.97;;;20.80;99.90;;;;;;5071400;28;20414;-39
2022/05/23 08:50:10;;;;;;;3.70;3.40;;;20.90;99.90;;;;;;5061720;28;20424;-41
2022/05/23 08:52:39;;;;;;;4.03;3.73;;;20.90;99.90;;;;;;5071704;28;21070;-41
2022/05/23 08:55:23;;;;;;;5.30;3.77;;;21.00;99.90;;;;;;5071772;28;20924;-39
2022/05/23 08:58:17;;;;;;;3.73;3.30;;;21.00;99.90;;;;;;5071297;28;20426;-41
2022/05/23 09:00:45;;;;;;;3.17;2.87;;;21.10;99.90;;;;;;5071969;28;20412;-39
2022/05/23 09:03:39;;;;;;;3.20;2.90;;;21.10;99.90;;;;;;5071761;28;20529;-41
2022/05/23 09:06:17;;;;;;;4.10;3.80;;;21.20;99.90;;;;;;5062143;28;20470;-41
2022/05/23 09:08:51;;;;;;;3.87;3.47;;;21.30;99.90;;;;;;5068969;28;20419;-39
2022/05/23 09:11:40;;;;;;;4.00;3.60;;;21.30;99.90;;;;;;5071848;28;20454;-40
2022/05/23 09:14:09;;;;;;;3.77;3.33;;;21.40;99.90;;;;;;5071391;28;20422;-39
2022/05/23 09:16:46;;;;;;;3.80;3.23;;;21.50;99.90;;;;;;5053128;28;20423;-45
2022/05/23 09:19:37;;;;;;;3.80;3.13;;;21.70;99.90;;;;;;5069003;28;20469;-40
2022/05/23 09:22:15;;;;;;;3.60;3.30;;;21.90;99.90;;;;;;5066828;28;20454;-40
2022/05/23 09:24:59;;;;;;;3.70;3.40;;;22.20;99.90;;;;;;5065749;28;21001;-40
2022/05/23 09:27:28;;;;;;;3.90;3.57;;;22.30;99.90;;;;;;5070929;28;20447;-39
2022/05/23 09:29:56;;;;;;;4.03;3.40;;;22.40;99.90;;;;;;5071122;28;20423;-42
2022/05/23 09:32:59;;;;;;;4.63;3.70;;;22.40;99.60;;;;;;5071503;28;21060;-39
2022/05/23 09:35:47;;;;;;;3.77;3.33;;;22.40;99.40;;;;;;5053878;28;20447;-41
2022/05/23 09:38:22;;;;;;;4.40;3.40;;;22.50;99.90;;;;;;5065734;28;20422;-44
2022/05/23 09:40:50;;;;;;;3.57;3.27;;;22.50;99.80;;;;;;5069977;28;20811;-40
2022/05/23 09:49:11;;;;;;;3.50;3.20;;;22.70;99.30;;;;;;5069841;28;20420;-39
2022/05/23 09:51:55;;;;;;;4.37;3.77;;;22.70;99.20;;;;;;5061936;28;20430;-40
2022/05/23 09:54:33;;;;;;;3.50;3.20;;;22.80;99.60;;;;;;5070628;28;20419;-41
2022/05/23 09:57:03;;;;;;;4.07;3.77;;;22.90;99.50;;;;;;5070199;28;20447;-40
2022/05/23 09:59:37;;;;;;;3.67;3.37;;;22.90;98.90;;;;;;5069676;28;20415;-42
2022/05/23 10:02:30;;;;;;;4.33;3.60;;;23.10;99.50;;;;;;5070684;28;20464;-40
2022/05/23 10:04:56;;;;;;;3.57;3.27;;;23.10;99.30;;;;;;5065334;28;20440;-39
2022/05/23 10:07:29;;;;;;;3.57;3.23;;;23.10;99.00;;;;;;5062916;28;20434;-41
2022/05/23 10:10:00;;;;;;;3.67;3.37;;;23.10;98.80;;;;;;5070363;28;20540;-41
2022/05/23 10:12:26;;;;;;;4.20;3.40;;;23.20;99.30;;;;;;5070487;28;20813;-42
2022/05/23 10:15:03;;;;;;;7.63;2.90;;;23.30;99.10;;;;;;5068147;28;21486;-41
2022/05/23 10:17:40;;;;;;;3.83;3.40;;;23.40;98.30;;;;;;5065127;28;20443;-39
2022/05/23 10:20:30;;;;;;;6.17;2.77;;;23.40;99.10;;;;;;5064108;28;20444;-40
2022/05/23 10:23:03;;;;;;;3.10;2.63;;;23.50;99.00;;;;;;5065239;28;20574;-40
2022/05/23 10:25:37;;;;;;;3.77;3.03;;;23.60;99.10;;;;;;5070308;28;20415;-41
2022/05/23 10:28:11;;;;;;;3.67;2.80;;;23.50;98.20;;;;;;5065454;28;21107;-40
2022/05/23 10:30:39;;;;;;;5.33;2.60;;;23.60;98.80;;;;;;5060772;28;20495;-40
2022/05/23 10:33:08;;;;;;;4.50;2.50;;;23.50;97.80;;;;;;5065707;28;20543;-43
2022/05/23 10:36:06;;;;;;;4.60;2.90;;;23.40;98.40;;;;;;5057809;28;20423;-42
2022/05/23 10:44:33;;;;;;;5.30;2.70;;;23.50;98.90;;;;;;5069771;28;20435;-41
2022/05/23 10:47:19;;;;;;;4.23;2.70;;;23.60;98.90;;;;;;5069102;28;20944;-39
2022/05/23 10:50:00;;;;;;;4.53;2.80;;;23.70;98.10;;;;;;5067993;28;20450;-39
2022/05/23 10:52:40;;;;;;;6.07;2.30;;;23.50;98.30;;;;;;5079790;28;20435;-40
2022/05/23 10:56:13;;;;;;;3.43;2.47;;;23.40;97.90;;;;;;5069617;28;20476;-39
2022/05/23 10:59:04;;;;;;;4.57;2.57;;;23.40;98.50;;;;;;4996288;28;20444;-40
2022/05/23 11:01:51;;;;;;;5.27;2.43;;;23.40;98.80;;;;;;5076255;28;20517;-42
2022/05/23 11:04:39;;;;;;;2.90;1.90;;;23.60;99.80;;;;;;5090001;28;20448;-42
2022/05/23 11:07:18;;;;;;;3.43;2.70;;;23.80;98.80;;;;;;5056093;28;20457;-40
2022/05/23 11:10:17;;;;;;;3.33;2.50;;;24.00;98.40;;;;;;5078004;28;20422;-39
2022/05/23 11:12:53;;;;;;;3.70;2.43;;;24.10;98.10;;;;;;5060128;28;20419;-42
2022/05/23 11:15:25;;;;;;;3.80;2.53;;;24.10;97.70;;;;;;5069384;28;20447;-41
2022/05/23 11:18:12;;;;;;;3.90;2.63;;;24.10;97.50;;;;;;5068683;28;20415;-41
2022/05/23 11:20:39;;;;;;;4.93;2.50;;;24.10;97.90;;;;;;5062365;28;20514;-42
2022/05/23 11:23:36;;;;;;;2.77;2.50;;;24.10;98.10;;;;;;5064918;28;20562;-40
2022/05/23 11:26:09;;;;;;;3.63;2.70;;;24.20;97.30;;;;;;5065275;28;20407;-44
2022/05/23 11:33:41;;;;;;;4.17;2.97;;;24.30;97.20;;;;;;5069068;28;20415;-39
2022/05/23 11:34:32;;;;;;;4.30;2.50;;;24.20;97.60;;;;;;5068585;28;20438;-41
2022/05/23 11:39:51;;;;;;;2.53;2.30;;;24.40;98.00;;;;;;5067964;28;20419;-40
2022/05/23 11:42:27;;;;;;;4.20;2.70;;;24.20;97.10;;;;;;5069149;28;20470;-39
2022/05/23 11:48:00;;;;;;;4.80;2.77;;;24.00;98.60;;;;;;5066237;28;20419;-40
2022/05/23 11:50:30;;;;;;;6.43;3.00;;;24.00;98.50;;;;;;5065351;28;20451;-40
2022/05/23 11:53:09;;;;;;;4.80;3.17;;;24.00;99.20;;;;;;5063929;28;20428;-42
2022/05/23 11:55:50;;;;;;;3.20;2.70;;;24.00;99.90;;;;;;5084202;28;20439;-41
2022/05/23 11:58:23;;;;;;;3.30;2.50;;;24.00;99.70;;;;;;5068432;28;20872;-42
2022/05/23 12:01:15;;;;;;;4.80;3.67;;;24.10;99.90;;;;;;5068597;28;20761;-42
2022/05/23 12:03:50;;;;;;;5.83;3.23;;;24.20;99.90;;;;;;5066533;28;20531;-41
2022/05/23 12:06:24;;;;;;;3.83;3.30;;;24.30;99.60;;;;;;5063204;28;20497;-39
2022/05/23 12:09:12;;;;;;;3.90;3.33;;;24.30;99.50;;;;;;5063058;28;20411;-39
2022/05/23 12:11:44;;;;;;;4.90;2.90;;;24.30;98.80;;;;;;5062662;28;20747;-42
2022/05/23 12:14:33;;;;;;;3.50;3.20;;;24.40;98.80;;;;;;5068857;28;20416;-39
2022/05/23 12:16:58;;;;;;;3.03;2.73;;;24.20;99.10;;;;;;5068147;28;20929;-43
2022/05/23 12:19:39;;;;;;;5.00;3.80;;;24.20;99.20;;;;;;5071169;28;20426;-39
2022/05/23 12:22:37;;;;;;;3.53;3.23;;;24.20;99.90;;;;;;5062683;28;20246;-40
2022/05/23 12:25:21;;;;;;;3.17;2.93;;;24.30;99.90;;;;;;5070757;28;20429;-39
2022/05/23 12:27:49;;;;;;;3.33;2.87;;;24.40;99.90;;;;;;5071846;28;20438;-42
2022/05/23 12:30:21;;;;;;;3.00;2.80;;;24.40;99.90;;;;;;5072473;28;20941;-42
2022/05/23 12:32:53;;;;;;;3.00;2.80;;;24.50;99.90;;;;;;5072287;28;20439;-39
2022/05/23 12:35:27;;;;;;;4.67;3.60;;;24.60;99.40;;;;;;5072543;28;20901;-41
2022/05/23 12:38:17;;;;;;;4.20;3.00;;;24.70;99.60;;;;;;5069173;28;20439;-39
2022/05/23 12:41:11;;;;;;;3.13;2.83;;;24.70;99.50;;;;;;5066153;28;20427;-41
2022/05/23 12:44:06;;;;;;;3.40;3.10;;;24.80;99.90;;;;;;5066288;28;20486;-42
2022/05/23 12:46:48;;;;;;;3.67;3.37;;;24.90;99.90;;;;;;5071328;28;20902;-40
2022/05/23 12:49:41;;;;;;;3.70;3.40;;;24.70;99.10;;;;;;5070763;28;20419;-44
2022/05/23 12:52:30;;;;;;;4.07;3.07;;;24.60;99.60;;;;;;5062904;28;20452;-39
2022/05/23 12:55:05;;;;;;;4.00;3.00;;;24.50;99.90;;;;;;5076132;28;20430;-40
2022/05/23 12:58:04;;;;;;;4.23;3.27;;;24.30;99.90;;;;;;5070947;28;20438;-43
2022/05/23 13:00:35;;;;;;;6.10;3.30;;;24.20;99.90;;;;;;5071719;28;20424;-39
2022/05/23 13:03:24;;;;;;;3.40;3.10;;;24.10;99.90;;;;;;5071573;28;20498;-41
2022/05/23 13:06:02;;;;;;;4.03;3.20;;;24.00;99.90;;;;;;5071977;28;20423;-42
2022/05/23 13:08:39;;;;;;;5.13;3.40;;;24.00;99.90;;;;;;5054350;28;20946;-39
2022/05/23 13:11:16;;;;;;;3.33;3.03;;;23.80;99.90;;;;;;5071804;28;20415;-41
2022/05/23 13:13:45;;;;;;;4.83;3.40;;;23.80;99.90;;;;;;5070057;28;21145;-40
2022/05/23 13:16:33;;;;;;;4.83;3.53;;;23.70;99.90;;;;;;5068723;28;21003;-41
2022/05/23 13:22:08;;;;;;;4.27;3.40;;;23.50;99.90;;;;;;5057130;28;20497;-40
2022/05/23 13:24:54;;;;;;;3.47;2.93;;;23.30;99.90;;;;;;5071809;28;20424;-40
2022/05/23 13:27:44;;;;;;;3.90;3.20;;;23.30;99.90;;;;;;5064248;28;20909;-39
2022/05/23 13:30:33;;;;;;;4.83;4.37;;;23.20;99.90;;;;;;5063214;28;20461;-41
2022/05/23 13:33:15;;;;;;;4.73;3.70;;;23.10;99.90;;;;;;5070497;28;20488;-39
2022/05/23 13:35:44;;;;;;;4.43;4.03;;;23.10;99.90;;;;;;5071442;28;20431;-39
2022/05/23 13:38:23;;;;;;;8.20;4.23;;;23.00;99.90;;;;;;5060061;28;20448;-40
2022/05/23 13:40:52;;;;;;;5.40;3.80;;;23.00;99.90;;;;;;5068700;28;20808;-39
2022/05/23 13:43:43;;;;;;;5.40;4.27;;;22.90;99.90;;;;;;5071243;28;20559;-42
2022/05/23 13:46:34;;;;;;;5.73;3.97;;;22.90;99.90;;;;;;5069737;28;20836;-42
2022/05/23 13:49:09;;;;;;;6.07;4.50;;;22.90;99.90;;;;;;5067797;28;20821;-40
2022/05/23 13:51:49;;;;;;;8.30;4.23;;;22.80;99.90;;;;;;5071117;28;20465;-39
2022/05/23 13:54:34;;;;;;;9.13;4.30;;;22.80;99.90;;;;;;5060298;28;20431;-40
2022/05/23 13:57:16;;;;;;;4.90;3.93;;;22.80;99.90;;;;;;5070385;28;20451;-41
2022/05/23 13:59:49;;;;;;;5.67;4.13;;;22.80;99.90;;;;;;5070906;28;20419;-40
2022/05/23 14:02:19;;;;;;;10.77;4.70;;;22.80;99.90;;;;;;5070954;28;20845;-40
2022/05/23 14:04:47;;;;;;;7.50;4.53;;;22.70;99.90;;;;;;5070821;28;20433;-43
2022/05/23 14:07:15;;;;;;;5.27;4.50;;;22.70;99.90;;;;;;5067444;28;20439;-39